sensor_id;sensor_type;location;lat;lon;timestamp;P1;durP1;ratioP1;P2;durP2;ratioP2
80637;SDS011;69991;51.760;19.528;2023-07-20T00:00:54;3.90;;;1.70;;
80637;SDS011;69991;51.760;19.528;2023-07-20T00:03:33;3.70;;;1.70;;
80637;SDS011;69991;51.760;19.528;2023-07-20T00:06:03;3.00;;;1.60;;
80637;SDS011;69991;51.760;19.528;2023-07-20T00:08:33;4.10;;;1.90;;
80637;SDS011;69991;51.760;19.528;2023-07-20T00:11:01;3.90;;;1.70;;
80637;SDS011;69991;51.760;19.528;2023-07-20T00:13:31;3.50;;;1.80;;
80637;SDS011;69991;51.760;19.528;2023-07-20T00:15:59;3.80;;;1.80;;
80637;SDS011;69991;51.760;19.528;2023-07-20T00:18:28;4.50;;;2.00;;
80637;SDS011;69991;51.760;19.528;2023-07-20T00:20:57;4.50;;;2.20;;
80637;SDS011;69991;51.760;19.528;2023-07-20T00:23:28;5.40;;;2.20;;
80637;SDS011;69991;51.760;19.528;2023-07-20T00:25:57;4.20;;;2.10;;
80637;SDS011;69991;51.760;19.528;2023-07-20T00:28:26;4.70;;;1.90;;
80637;SDS011;69991;51.760;19.528;2023-07-20T00:30:55;4.30;;;1.80;;
80637;SDS011;69991;51.760;19.528;2023-07-20T00:33:24;6.20;;;2.50;;
80637;SDS011;69991;51.760;19.528;2023-07-20T00:35:53;4.30;;;2.10;;
80637;SDS011;69991;51.760;19.528;2023-07-20T00:38:22;4.20;;;2.00;;
80637;SDS011;69991;51.760;19.528;2023-07-20T00:40:51;3.80;;;1.80;;
80637;SDS011;69991;51.760;19.528;2023-07-20T00:43:20;4.30;;;2.00;;
80637;SDS011;69991;51.760;19.528;2023-07-20T00:45:49;5.50;;;2.10;;
80637;SDS011;69991;51.760;19.528;2023-07-20T00:48:18;5.20;;;2.10;;
80637;SDS011;69991;51.760;19.528;2023-07-20T00:50:47;5.00;;;2.10;;
80637;SDS011;69991;51.760;19.528;2023-07-20T00:53:17;5.20;;;2.00;;
80637;SDS011;69991;51.760;19.528;2023-07-20T00:55:46;5.50;;;2.00;;
80637;SDS011;69991;51.760;19.528;2023-07-20T00:58:15;3.50;;;1.90;;
80637;SDS011;69991;51.760;19.528;2023-07-20T01:00:44;4.60;;;2.00;;
80637;SDS011;69991;51.760;19.528;2023-07-20T01:03:13;4.60;;;2.00;;
80637;SDS011;69991;51.760;19.528;2023-07-20T01:08:58;4.40;;;1.90;;
80637;SDS011;69991;51.760;19.528;2023-07-20T01:12:00;4.00;;;2.10;;
80637;SDS011;69991;51.760;19.528;2023-07-20T01:14:34;4.30;;;1.80;;
80637;SDS011;69991;51.760;19.528;2023-07-20T01:17:03;4.50;;;2.00;;
80637;SDS011;69991;51.760;19.528;2023-07-20T01:19:32;5.30;;;2.00;;
80637;SDS011;69991;51.760;19.528;2023-07-20T01:22:03;4.00;;;1.70;;
80637;SDS011;69991;51.760;19.528;2023-07-20T01:27:36;3.70;;;1.70;;
80637;SDS011;69991;51.760;19.528;2023-07-20T01:32:52;3.50;;;1.50;;
80637;SDS011;69991;51.760;19.528;2023-07-20T01:35:23;4.80;;;1.90;;
80637;SDS011;69991;51.760;19.528;2023-07-20T01:37:56;4.40;;;1.70;;
80637;SDS011;69991;51.760;19.528;2023-07-20T01:40:26;4.10;;;1.70;;
80637;SDS011;69991;51.760;19.528;2023-07-20T01:42:55;4.70;;;1.50;;
80637;SDS011;69991;51.760;19.528;2023-07-20T01:45:24;3.40;;;1.60;;
80637;SDS011;69991;51.760;19.528;2023-07-20T01:47:54;3.80;;;1.90;;
80637;SDS011;69991;51.760;19.528;2023-07-20T01:50:23;3.80;;;1.70;;
80637;SDS011;69991;51.760;19.528;2023-07-20T01:52:53;3.30;;;1.80;;
80637;SDS011;69991;51.760;19.528;2023-07-20T01:55:22;3.30;;;1.70;;
80637;SDS011;69991;51.760;19.528;2023-07-20T01:57:50;4.90;;;1.90;;
80637;SDS011;69991;51.760;19.528;2023-07-20T02:00:19;5.50;;;1.70;;
80637;SDS011;69991;51.760;19.528;2023-07-20T02:02:52;4.00;;;2.00;;
80637;SDS011;69991;51.760;19.528;2023-07-20T02:05:21;4.00;;;1.60;;
80637;SDS011;69991;51.760;19.528;2023-07-20T02:07:50;3.70;;;1.50;;
80637;SDS011;69991;51.760;19.528;2023-07-20T02:10:19;3.90;;;1.60;;
80637;SDS011;69991;51.760;19.528;2023-07-20T02:12:49;4.60;;;2.10;;
80637;SDS011;69991;51.760;19.528;2023-07-20T02:15:18;3.70;;;1.70;;
80637;SDS011;69991;51.760;19.528;2023-07-20T02:17:48;4.10;;;1.90;;
80637;SDS011;69991;51.760;19.528;2023-07-20T02:20:17;3.80;;;1.70;;
80637;SDS011;69991;51.760;19.528;2023-07-20T02:22:46;4.40;;;2.10;;
80637;SDS011;69991;51.760;19.528;2023-07-20T02:25:16;5.10;;;1.90;;
80637;SDS011;69991;51.760;19.528;2023-07-20T02:27:45;3.80;;;1.80;;
80637;SDS011;69991;51.760;19.528;2023-07-20T02:30:14;4.10;;;1.70;;
80637;SDS011;69991;51.760;19.528;2023-07-20T02:32:44;4.20;;;1.80;;
80637;SDS011;69991;51.760;19.528;2023-07-20T02:35:19;4.60;;;2.30;;
80637;SDS011;69991;51.760;19.528;2023-07-20T02:37:48;3.80;;;2.20;;
80637;SDS011;69991;51.760;19.528;2023-07-20T02:40:17;4.10;;;2.20;;
80637;SDS011;69991;51.760;19.528;2023-07-20T02:42:46;6.60;;;2.40;;
80637;SDS011;69991;51.760;19.528;2023-07-20T02:45:16;5.20;;;2.10;;
80637;SDS011;69991;51.760;19.528;2023-07-20T02:47:45;4.90;;;2.60;;
80637;SDS011;69991;51.760;19.528;2023-07-20T02:50:14;4.20;;;2.50;;
80637;SDS011;69991;51.760;19.528;2023-07-20T02:52:43;4.10;;;2.20;;
80637;SDS011;69991;51.760;19.528;2023-07-20T02:55:12;5.90;;;2.80;;
80637;SDS011;69991;51.760;19.528;2023-07-20T02:57:41;6.00;;;3.60;;
80637;SDS011;69991;51.760;19.528;2023-07-20T03:00:10;8.80;;;5.90;;
80637;SDS011;69991;51.760;19.528;2023-07-20T03:02:40;13.40;;;7.60;;
80637;SDS011;69991;51.760;19.528;2023-07-20T03:05:09;6.60;;;3.90;;
80637;SDS011;69991;51.760;19.528;2023-07-20T03:07:38;6.90;;;3.60;;
80637;SDS011;69991;51.760;19.528;2023-07-20T03:10:07;6.50;;;3.30;;
80637;SDS011;69991;51.760;19.528;2023-07-20T03:12:38;6.10;;;3.30;;
80637;SDS011;69991;51.760;19.528;2023-07-20T03:15:07;6.90;;;3.60;;
80637;SDS011;69991;51.760;19.528;2023-07-20T03:17:37;8.40;;;4.50;;
80637;SDS011;69991;51.760;19.528;2023-07-20T03:20:06;8.70;;;4.80;;
80637;SDS011;69991;51.760;19.528;2023-07-20T03:22:38;6.90;;;4.10;;
80637;SDS011;69991;51.760;19.528;2023-07-20T03:25:07;7.00;;;3.90;;
80637;SDS011;69991;51.760;19.528;2023-07-20T03:27:36;8.50;;;3.90;;
80637;SDS011;69991;51.760;19.528;2023-07-20T03:30:06;6.70;;;3.80;;
80637;SDS011;69991;51.760;19.528;2023-07-20T03:32:35;6.00;;;3.50;;
80637;SDS011;69991;51.760;19.528;2023-07-20T03:35:05;7.10;;;4.60;;
80637;SDS011;69991;51.760;19.528;2023-07-20T03:37:34;7.30;;;4.20;;
80637;SDS011;69991;51.760;19.528;2023-07-20T03:40:05;8.10;;;4.70;;
80637;SDS011;69991;51.760;19.528;2023-07-20T03:42:36;7.20;;;3.40;;
80637;SDS011;69991;51.760;19.528;2023-07-20T03:45:05;6.80;;;3.40;;
80637;SDS011;69991;51.760;19.528;2023-07-20T03:47:35;6.90;;;3.20;;
80637;SDS011;69991;51.760;19.528;2023-07-20T03:50:04;6.20;;;3.30;;
80637;SDS011;69991;51.760;19.528;2023-07-20T03:52:34;7.20;;;3.20;;
80637;SDS011;69991;51.760;19.528;2023-07-20T03:55:03;6.20;;;3.10;;
80637;SDS011;69991;51.760;19.528;2023-07-20T03:57:32;5.50;;;2.80;;
80637;SDS011;69991;51.760;19.528;2023-07-20T04:00:02;6.40;;;3.10;;
80637;SDS011;69991;51.760;19.528;2023-07-20T04:02:35;5.30;;;3.00;;
80637;SDS011;69991;51.760;19.528;2023-07-20T04:05:04;6.60;;;2.90;;
80637;SDS011;69991;51.760;19.528;2023-07-20T04:07:33;6.40;;;3.40;;
80637;SDS011;69991;51.760;19.528;2023-07-20T04:10:02;5.50;;;3.60;;
80637;SDS011;69991;51.760;19.528;2023-07-20T04:12:31;5.60;;;3.30;;
80637;SDS011;69991;51.760;19.528;2023-07-20T04:15:00;6.50;;;3.60;;
80637;SDS011;69991;51.760;19.528;2023-07-20T04:17:30;5.70;;;3.30;;
80637;SDS011;69991;51.760;19.528;2023-07-20T04:19:59;5.70;;;3.60;;
80637;SDS011;69991;51.760;19.528;2023-07-20T04:22:28;7.00;;;3.80;;
80637;SDS011;69991;51.760;19.528;2023-07-20T04:24:57;6.00;;;3.40;;
80637;SDS011;69991;51.760;19.528;2023-07-20T04:27:26;6.90;;;3.90;;
80637;SDS011;69991;51.760;19.528;2023-07-20T04:29:57;5.60;;;3.30;;
80637;SDS011;69991;51.760;19.528;2023-07-20T04:32:28;5.50;;;3.50;;
80637;SDS011;69991;51.760;19.528;2023-07-20T04:34:57;7.10;;;3.20;;
80637;SDS011;69991;51.760;19.528;2023-07-20T04:37:26;4.90;;;2.90;;
80637;SDS011;69991;51.760;19.528;2023-07-20T04:39:55;5.50;;;3.40;;
80637;SDS011;69991;51.760;19.528;2023-07-20T04:42:24;6.00;;;3.10;;
80637;SDS011;69991;51.760;19.528;2023-07-20T04:44:53;6.70;;;3.60;;
80637;SDS011;69991;51.760;19.528;2023-07-20T04:47:22;7.40;;;3.20;;
80637;SDS011;69991;51.760;19.528;2023-07-20T04:49:51;6.60;;;3.50;;
80637;SDS011;69991;51.760;19.528;2023-07-20T04:52:20;6.20;;;3.30;;
80637;SDS011;69991;51.760;19.528;2023-07-20T04:55:01;5.80;;;3.20;;
80637;SDS011;69991;51.760;19.528;2023-07-20T04:57:33;5.00;;;3.40;;
80637;SDS011;69991;51.760;19.528;2023-07-20T05:00:02;5.60;;;2.90;;
80637;SDS011;69991;51.760;19.528;2023-07-20T05:02:32;5.80;;;3.30;;
80637;SDS011;69991;51.760;19.528;2023-07-20T05:05:02;7.10;;;3.70;;
80637;SDS011;69991;51.760;19.528;2023-07-20T05:07:34;5.70;;;3.20;;
80637;SDS011;69991;51.760;19.528;2023-07-20T05:10:03;5.30;;;3.30;;
80637;SDS011;69991;51.760;19.528;2023-07-20T05:12:32;6.30;;;3.20;;
80637;SDS011;69991;51.760;19.528;2023-07-20T05:15:01;5.90;;;3.40;;
80637;SDS011;69991;51.760;19.528;2023-07-20T05:17:31;5.80;;;3.60;;
80637;SDS011;69991;51.760;19.528;2023-07-20T05:20:00;5.60;;;2.90;;
80637;SDS011;69991;51.760;19.528;2023-07-20T05:22:29;5.30;;;3.10;;
80637;SDS011;69991;51.760;19.528;2023-07-20T05:24:58;7.00;;;3.90;;
80637;SDS011;69991;51.760;19.528;2023-07-20T05:27:27;5.40;;;3.70;;
80637;SDS011;69991;51.760;19.528;2023-07-20T05:29:55;5.70;;;4.00;;
80637;SDS011;69991;51.760;19.528;2023-07-20T05:32:25;6.40;;;3.70;;
80637;SDS011;69991;51.760;19.528;2023-07-20T05:34:54;6.40;;;3.60;;
80637;SDS011;69991;51.760;19.528;2023-07-20T05:37:23;7.50;;;3.50;;
80637;SDS011;69991;51.760;19.528;2023-07-20T05:39:52;6.20;;;3.80;;
80637;SDS011;69991;51.760;19.528;2023-07-20T05:42:21;7.00;;;4.40;;
80637;SDS011;69991;51.760;19.528;2023-07-20T05:44:50;7.20;;;3.90;;
80637;SDS011;69991;51.760;19.528;2023-07-20T05:47:21;8.90;;;4.70;;
80637;SDS011;69991;51.760;19.528;2023-07-20T05:49:50;5.50;;;3.40;;
80637;SDS011;69991;51.760;19.528;2023-07-20T05:52:19;6.90;;;3.60;;
80637;SDS011;69991;51.760;19.528;2023-07-20T05:54:48;5.50;;;3.60;;
80637;SDS011;69991;51.760;19.528;2023-07-20T05:57:17;6.70;;;4.20;;
80637;SDS011;69991;51.760;19.528;2023-07-20T05:59:46;5.60;;;3.30;;
80637;SDS011;69991;51.760;19.528;2023-07-20T06:02:15;6.40;;;3.80;;
80637;SDS011;69991;51.760;19.528;2023-07-20T06:04:45;5.00;;;3.10;;
80637;SDS011;69991;51.760;19.528;2023-07-20T06:07:14;5.70;;;3.90;;
80637;SDS011;69991;51.760;19.528;2023-07-20T06:09:43;6.30;;;3.50;;
80637;SDS011;69991;51.760;19.528;2023-07-20T06:12:12;6.10;;;4.20;;
80637;SDS011;69991;51.760;19.528;2023-07-20T06:14:41;8.00;;;4.10;;
80637;SDS011;69991;51.760;19.528;2023-07-20T06:17:10;6.30;;;4.50;;
80637;SDS011;69991;51.760;19.528;2023-07-20T06:19:39;6.70;;;4.30;;
80637;SDS011;69991;51.760;19.528;2023-07-20T06:22:08;6.20;;;4.10;;
80637;SDS011;69991;51.760;19.528;2023-07-20T06:24:37;6.20;;;4.50;;
80637;SDS011;69991;51.760;19.528;2023-07-20T06:27:06;7.20;;;4.20;;
80637;SDS011;69991;51.760;19.528;2023-07-20T06:29:35;6.20;;;4.20;;
80637;SDS011;69991;51.760;19.528;2023-07-20T06:32:04;7.20;;;4.60;;
80637;SDS011;69991;51.760;19.528;2023-07-20T06:34:34;6.10;;;4.70;;
80637;SDS011;69991;51.760;19.528;2023-07-20T06:37:06;6.90;;;4.30;;
80637;SDS011;69991;51.760;19.528;2023-07-20T06:39:35;6.40;;;4.60;;
80637;SDS011;69991;51.760;19.528;2023-07-20T06:42:07;8.50;;;4.60;;
80637;SDS011;69991;51.760;19.528;2023-07-20T06:44:36;9.30;;;4.90;;
80637;SDS011;69991;51.760;19.528;2023-07-20T06:47:05;6.70;;;4.60;;
80637;SDS011;69991;51.760;19.528;2023-07-20T06:49:34;7.20;;;4.40;;
80637;SDS011;69991;51.760;19.528;2023-07-20T06:52:03;8.40;;;4.60;;
80637;SDS011;69991;51.760;19.528;2023-07-20T06:54:32;8.50;;;5.40;;
80637;SDS011;69991;51.760;19.528;2023-07-20T06:57:04;8.00;;;5.00;;
80637;SDS011;69991;51.760;19.528;2023-07-20T06:59:37;7.80;;;5.00;;
80637;SDS011;69991;51.760;19.528;2023-07-20T07:02:09;8.20;;;5.00;;
80637;SDS011;69991;51.760;19.528;2023-07-20T07:04:41;7.70;;;4.60;;
80637;SDS011;69991;51.760;19.528;2023-07-20T07:07:11;8.80;;;5.20;;
80637;SDS011;69991;51.760;19.528;2023-07-20T07:09:41;7.80;;;4.60;;
80637;SDS011;69991;51.760;19.528;2023-07-20T07:12:11;7.00;;;4.70;;
80637;SDS011;69991;51.760;19.528;2023-07-20T07:14:40;6.50;;;4.70;;
80637;SDS011;69991;51.760;19.528;2023-07-20T07:17:09;7.20;;;4.50;;
80637;SDS011;69991;51.760;19.528;2023-07-20T07:19:39;8.00;;;5.00;;
80637;SDS011;69991;51.760;19.528;2023-07-20T07:22:09;8.30;;;5.30;;
80637;SDS011;69991;51.760;19.528;2023-07-20T07:24:38;8.10;;;5.10;;
80637;SDS011;69991;51.760;19.528;2023-07-20T07:27:10;8.70;;;4.70;;
80637;SDS011;69991;51.760;19.528;2023-07-20T07:29:38;7.30;;;4.10;;
80637;SDS011;69991;51.760;19.528;2023-07-20T07:32:07;8.30;;;4.20;;
80637;SDS011;69991;51.760;19.528;2023-07-20T07:34:39;9.00;;;4.50;;
80637;SDS011;69991;51.760;19.528;2023-07-20T07:37:07;7.50;;;4.10;;
80637;SDS011;69991;51.760;19.528;2023-07-20T07:39:36;7.70;;;4.50;;
80637;SDS011;69991;51.760;19.528;2023-07-20T07:42:05;6.80;;;4.30;;
80637;SDS011;69991;51.760;19.528;2023-07-20T07:44:34;8.10;;;4.40;;
80637;SDS011;69991;51.760;19.528;2023-07-20T07:47:03;7.80;;;4.90;;
80637;SDS011;69991;51.760;19.528;2023-07-20T07:49:33;8.60;;;4.90;;
80637;SDS011;69991;51.760;19.528;2023-07-20T07:52:02;9.30;;;5.00;;
80637;SDS011;69991;51.760;19.528;2023-07-20T07:54:31;7.40;;;4.40;;
80637;SDS011;69991;51.760;19.528;2023-07-20T07:57:00;9.10;;;5.00;;
80637;SDS011;69991;51.760;19.528;2023-07-20T07:59:29;8.10;;;4.90;;
80637;SDS011;69991;51.760;19.528;2023-07-20T08:01:59;8.80;;;4.70;;
80637;SDS011;69991;51.760;19.528;2023-07-20T08:04:28;7.90;;;4.80;;
80637;SDS011;69991;51.760;19.528;2023-07-20T08:06:58;6.80;;;4.40;;
80637;SDS011;69991;51.760;19.528;2023-07-20T08:09:28;7.00;;;4.00;;
80637;SDS011;69991;51.760;19.528;2023-07-20T08:11:57;8.10;;;4.40;;
80637;SDS011;69991;51.760;19.528;2023-07-20T08:14:26;6.90;;;4.30;;
80637;SDS011;69991;51.760;19.528;2023-07-20T08:16:55;7.70;;;4.80;;
80637;SDS011;69991;51.760;19.528;2023-07-20T08:19:24;10.30;;;4.90;;
80637;SDS011;69991;51.760;19.528;2023-07-20T08:21:53;8.90;;;5.40;;
80637;SDS011;69991;51.760;19.528;2023-07-20T08:24:22;7.30;;;4.80;;
80637;SDS011;69991;51.760;19.528;2023-07-20T08:26:51;7.00;;;5.20;;
80637;SDS011;69991;51.760;19.528;2023-07-20T08:29:20;5.90;;;5.00;;
80637;SDS011;69991;51.760;19.528;2023-07-20T08:31:50;8.20;;;5.30;;
80637;SDS011;69991;51.760;19.528;2023-07-20T08:34:18;7.50;;;5.10;;
80637;SDS011;69991;51.760;19.528;2023-07-20T08:36:59;8.60;;;6.10;;
80637;SDS011;69991;51.760;19.528;2023-07-20T08:39:28;7.40;;;6.50;;
80637;SDS011;69991;51.760;19.528;2023-07-20T08:41:58;9.60;;;7.00;;
80637;SDS011;69991;51.760;19.528;2023-07-20T08:44:28;7.20;;;6.10;;
80637;SDS011;69991;51.760;19.528;2023-07-20T08:46:57;9.10;;;7.00;;
80637;SDS011;69991;51.760;19.528;2023-07-20T08:49:28;12.20;;;6.70;;
80637;SDS011;69991;51.760;19.528;2023-07-20T08:51:58;9.70;;;6.10;;
80637;SDS011;69991;51.760;19.528;2023-07-20T08:54:29;7.50;;;5.70;;
80637;SDS011;69991;51.760;19.528;2023-07-20T08:57:01;7.80;;;5.90;;
80637;SDS011;69991;51.760;19.528;2023-07-20T08:59:31;8.00;;;5.00;;
80637;SDS011;69991;51.760;19.528;2023-07-20T09:02:01;7.00;;;5.30;;
80637;SDS011;69991;51.760;19.528;2023-07-20T09:04:31;6.80;;;5.30;;
80637;SDS011;69991;51.760;19.528;2023-07-20T09:07:01;6.80;;;5.20;;
80637;SDS011;69991;51.760;19.528;2023-07-20T09:09:30;8.00;;;6.10;;
80637;SDS011;69991;51.760;19.528;2023-07-20T09:11:59;8.50;;;6.30;;
80637;SDS011;69991;51.760;19.528;2023-07-20T09:14:28;7.00;;;5.20;;
80637;SDS011;69991;51.760;19.528;2023-07-20T09:17:00;6.70;;;4.40;;
80637;SDS011;69991;51.760;19.528;2023-07-20T09:19:29;7.20;;;5.10;;
80637;SDS011;69991;51.760;19.528;2023-07-20T09:21:58;5.60;;;4.10;;
80637;SDS011;69991;51.760;19.528;2023-07-20T09:24:28;5.00;;;3.30;;
80637;SDS011;69991;51.760;19.528;2023-07-20T09:26:57;4.40;;;3.00;;
80637;SDS011;69991;51.760;19.528;2023-07-20T09:29:32;10.60;;;3.50;;
80637;SDS011;69991;51.760;19.528;2023-07-20T09:32:04;4.90;;;2.60;;
80637;SDS011;69991;51.760;19.528;2023-07-20T09:34:34;4.80;;;2.80;;
80637;SDS011;69991;51.760;19.528;2023-07-20T09:37:08;5.10;;;2.90;;
80637;SDS011;69991;51.760;19.528;2023-07-20T09:39:45;5.40;;;2.40;;
80637;SDS011;69991;51.760;19.528;2023-07-20T09:42:17;4.80;;;2.40;;
80637;SDS011;69991;51.760;19.528;2023-07-20T09:44:51;4.80;;;2.50;;
80637;SDS011;69991;51.760;19.528;2023-07-20T09:47:24;4.60;;;2.40;;
80637;SDS011;69991;51.760;19.528;2023-07-20T09:49:59;3.90;;;2.20;;
80637;SDS011;69991;51.760;19.528;2023-07-20T09:52:31;4.70;;;2.60;;
80637;SDS011;69991;51.760;19.528;2023-07-20T09:55:03;4.20;;;2.20;;
80637;SDS011;69991;51.760;19.528;2023-07-20T09:57:33;4.80;;;2.20;;
80637;SDS011;69991;51.760;19.528;2023-07-20T10:00:04;4.10;;;2.00;;
80637;SDS011;69991;51.760;19.528;2023-07-20T10:02:45;3.70;;;2.10;;
80637;SDS011;69991;51.760;19.528;2023-07-20T10:05:14;4.00;;;2.30;;
80637;SDS011;69991;51.760;19.528;2023-07-20T10:07:47;4.10;;;2.10;;
80637;SDS011;69991;51.760;19.528;2023-07-20T10:10:17;3.20;;;2.00;;
80637;SDS011;69991;51.760;19.528;2023-07-20T10:12:48;3.70;;;2.20;;
80637;SDS011;69991;51.760;19.528;2023-07-20T10:17:59;5.30;;;2.50;;
80637;SDS011;69991;51.760;19.528;2023-07-20T10:20:35;4.20;;;2.10;;
80637;SDS011;69991;51.760;19.528;2023-07-20T10:23:05;4.80;;;2.60;;
80637;SDS011;69991;51.760;19.528;2023-07-20T10:25:35;4.90;;;2.50;;
80637;SDS011;69991;51.760;19.528;2023-07-20T10:28:08;4.80;;;2.60;;
80637;SDS011;69991;51.760;19.528;2023-07-20T10:30:39;3.70;;;2.00;;
80637;SDS011;69991;51.760;19.528;2023-07-20T10:33:08;4.90;;;2.70;;
80637;SDS011;69991;51.760;19.528;2023-07-20T10:35:54;5.10;;;2.80;;
80637;SDS011;69991;51.760;19.528;2023-07-20T10:38:40;3.90;;;2.10;;
80637;SDS011;69991;51.760;19.528;2023-07-20T10:41:17;3.80;;;2.10;;
80637;SDS011;69991;51.760;19.528;2023-07-20T10:43:48;6.20;;;3.40;;
80637;SDS011;69991;51.760;19.528;2023-07-20T10:49:09;4.40;;;2.40;;
80637;SDS011;69991;51.760;19.528;2023-07-20T10:51:46;3.80;;;2.40;;
80637;SDS011;69991;51.760;19.528;2023-07-20T10:56:49;4.50;;;2.30;;
80637;SDS011;69991;51.760;19.528;2023-07-20T10:59:19;4.10;;;2.10;;
80637;SDS011;69991;51.760;19.528;2023-07-20T11:02:09;5.00;;;2.60;;
80637;SDS011;69991;51.760;19.528;2023-07-20T11:04:39;6.60;;;2.60;;
80637;SDS011;69991;51.760;19.528;2023-07-20T11:07:08;3.70;;;2.20;;
80637;SDS011;69991;51.760;19.528;2023-07-20T11:09:38;5.10;;;2.20;;
80637;SDS011;69991;51.760;19.528;2023-07-20T11:12:14;4.30;;;2.20;;
80637;SDS011;69991;51.760;19.528;2023-07-20T11:14:54;4.70;;;2.00;;
80637;SDS011;69991;51.760;19.528;2023-07-20T11:17:28;3.70;;;1.50;;
80637;SDS011;69991;51.760;19.528;2023-07-20T11:20:01;3.80;;;1.50;;
80637;SDS011;69991;51.760;19.528;2023-07-20T11:22:34;3.20;;;1.30;;
80637;SDS011;69991;51.760;19.528;2023-07-20T11:25:04;3.40;;;1.50;;
80637;SDS011;69991;51.760;19.528;2023-07-20T11:27:38;4.30;;;1.70;;
80637;SDS011;69991;51.760;19.528;2023-07-20T11:30:16;4.00;;;1.90;;
80637;SDS011;69991;51.760;19.528;2023-07-20T11:32:48;4.10;;;1.90;;
80637;SDS011;69991;51.760;19.528;2023-07-20T11:35:17;5.00;;;2.20;;
80637;SDS011;69991;51.760;19.528;2023-07-20T11:37:46;3.70;;;2.20;;
80637;SDS011;69991;51.760;19.528;2023-07-20T11:40:15;3.80;;;1.90;;
80637;SDS011;69991;51.760;19.528;2023-07-20T11:42:44;4.10;;;1.90;;
80637;SDS011;69991;51.760;19.528;2023-07-20T11:45:19;3.90;;;2.10;;
80637;SDS011;69991;51.760;19.528;2023-07-20T11:47:50;4.80;;;1.90;;
80637;SDS011;69991;51.760;19.528;2023-07-20T11:50:19;3.90;;;2.00;;
80637;SDS011;69991;51.760;19.528;2023-07-20T11:52:49;6.10;;;2.40;;
80637;SDS011;69991;51.760;19.528;2023-07-20T11:55:18;5.20;;;2.60;;
80637;SDS011;69991;51.760;19.528;2023-07-20T11:58:00;4.50;;;2.40;;
80637;SDS011;69991;51.760;19.528;2023-07-20T12:00:30;5.00;;;2.40;;
80637;SDS011;69991;51.760;19.528;2023-07-20T12:05:34;4.40;;;2.50;;
80637;SDS011;69991;51.760;19.528;2023-07-20T12:08:16;4.20;;;2.20;;
80637;SDS011;69991;51.760;19.528;2023-07-20T12:10:45;4.30;;;2.50;;
80637;SDS011;69991;51.760;19.528;2023-07-20T12:13:15;4.80;;;2.60;;
80637;SDS011;69991;51.760;19.528;2023-07-20T12:15:44;7.70;;;3.20;;
80637;SDS011;69991;51.760;19.528;2023-07-20T12:18:13;4.50;;;2.30;;
80637;SDS011;69991;51.760;19.528;2023-07-20T12:20:43;6.60;;;2.70;;
80637;SDS011;69991;51.760;19.528;2023-07-20T12:23:12;4.40;;;2.60;;
80637;SDS011;69991;51.760;19.528;2023-07-20T12:25:43;4.60;;;2.60;;
80637;SDS011;69991;51.760;19.528;2023-07-20T12:28:15;4.50;;;2.70;;
80637;SDS011;69991;51.760;19.528;2023-07-20T12:30:45;4.80;;;3.10;;
80637;SDS011;69991;51.760;19.528;2023-07-20T12:33:15;5.10;;;3.40;;
80637;SDS011;69991;51.760;19.528;2023-07-20T12:35:45;4.80;;;3.20;;
80637;SDS011;69991;51.760;19.528;2023-07-20T12:38:14;4.50;;;2.90;;
80637;SDS011;69991;51.760;19.528;2023-07-20T12:40:47;5.30;;;3.50;;
80637;SDS011;69991;51.760;19.528;2023-07-20T12:43:16;5.80;;;3.40;;
80637;SDS011;69991;51.760;19.528;2023-07-20T12:45:45;6.80;;;3.60;;
80637;SDS011;69991;51.760;19.528;2023-07-20T12:48:15;4.30;;;3.30;;
80637;SDS011;69991;51.760;19.528;2023-07-20T12:50:44;5.90;;;3.60;;
80637;SDS011;69991;51.760;19.528;2023-07-20T12:53:13;6.00;;;3.40;;
80637;SDS011;69991;51.760;19.528;2023-07-20T12:55:43;5.50;;;3.60;;
80637;SDS011;69991;51.760;19.528;2023-07-20T12:58:13;5.10;;;2.90;;
80637;SDS011;69991;51.760;19.528;2023-07-20T13:00:42;4.70;;;2.70;;
80637;SDS011;69991;51.760;19.528;2023-07-20T13:03:11;4.60;;;2.30;;
80637;SDS011;69991;51.760;19.528;2023-07-20T13:05:59;3.20;;;1.50;;
80637;SDS011;69991;51.760;19.528;2023-07-20T13:08:31;6.10;;;2.00;;
80637;SDS011;69991;51.760;19.528;2023-07-20T13:11:00;2.30;;;1.00;;
80637;SDS011;69991;51.760;19.528;2023-07-20T13:13:29;2.50;;;0.80;;
80637;SDS011;69991;51.760;19.528;2023-07-20T13:16:03;2.60;;;0.90;;
80637;SDS011;69991;51.760;19.528;2023-07-20T13:18:33;2.70;;;1.00;;
80637;SDS011;69991;51.760;19.528;2023-07-20T13:21:02;2.70;;;1.10;;
80637;SDS011;69991;51.760;19.528;2023-07-20T13:23:31;2.60;;;0.90;;
80637;SDS011;69991;51.760;19.528;2023-07-20T13:26:00;2.90;;;1.30;;
80637;SDS011;69991;51.760;19.528;2023-07-20T13:28:30;2.80;;;1.10;;
80637;SDS011;69991;51.760;19.528;2023-07-20T13:30:59;2.90;;;1.30;;
80637;SDS011;69991;51.760;19.528;2023-07-20T13:33:28;2.90;;;1.10;;
80637;SDS011;69991;51.760;19.528;2023-07-20T13:35:58;3.20;;;1.40;;
80637;SDS011;69991;51.760;19.528;2023-07-20T13:38:27;3.80;;;1.40;;
80637;SDS011;69991;51.760;19.528;2023-07-20T13:40:56;3.90;;;1.30;;
80637;SDS011;69991;51.760;19.528;2023-07-20T13:43:25;4.20;;;1.30;;
80637;SDS011;69991;51.760;19.528;2023-07-20T13:45:55;3.70;;;1.40;;
80637;SDS011;69991;51.760;19.528;2023-07-20T13:48:24;3.50;;;1.50;;
80637;SDS011;69991;51.760;19.528;2023-07-20T13:50:56;3.20;;;1.20;;
80637;SDS011;69991;51.760;19.528;2023-07-20T13:53:28;4.30;;;1.80;;
80637;SDS011;69991;51.760;19.528;2023-07-20T13:56:01;3.50;;;1.70;;
80637;SDS011;69991;51.760;19.528;2023-07-20T13:58:36;3.50;;;1.70;;
80637;SDS011;69991;51.760;19.528;2023-07-20T14:01:08;3.50;;;1.70;;
80637;SDS011;69991;51.760;19.528;2023-07-20T14:03:37;3.30;;;1.70;;
80637;SDS011;69991;51.760;19.528;2023-07-20T14:06:06;4.00;;;2.00;;
80637;SDS011;69991;51.760;19.528;2023-07-20T14:08:38;3.30;;;1.60;;
80637;SDS011;69991;51.760;19.528;2023-07-20T14:11:08;3.00;;;1.40;;
80637;SDS011;69991;51.760;19.528;2023-07-20T14:13:39;5.20;;;1.20;;
80637;SDS011;69991;51.760;19.528;2023-07-20T14:16:15;2.90;;;1.50;;
80637;SDS011;69991;51.760;19.528;2023-07-20T14:18:44;3.40;;;1.30;;
80637;SDS011;69991;51.760;19.528;2023-07-20T14:21:18;3.70;;;1.60;;
80637;SDS011;69991;51.760;19.528;2023-07-20T14:23:48;4.00;;;1.70;;
80637;SDS011;69991;51.760;19.528;2023-07-20T14:26:22;2.80;;;1.70;;
80637;SDS011;69991;51.760;19.528;2023-07-20T14:28:51;2.90;;;1.50;;
80637;SDS011;69991;51.760;19.528;2023-07-20T14:31:20;3.00;;;1.40;;
80637;SDS011;69991;51.760;19.528;2023-07-20T14:33:50;3.00;;;1.40;;
80637;SDS011;69991;51.760;19.528;2023-07-20T14:36:20;4.00;;;1.50;;
80637;SDS011;69991;51.760;19.528;2023-07-20T14:38:50;2.80;;;1.30;;
80637;SDS011;69991;51.760;19.528;2023-07-20T14:41:19;2.70;;;1.30;;
80637;SDS011;69991;51.760;19.528;2023-07-20T14:43:49;3.50;;;1.20;;
80637;SDS011;69991;51.760;19.528;2023-07-20T14:46:18;3.10;;;1.20;;
80637;SDS011;69991;51.760;19.528;2023-07-20T14:51:20;3.00;;;1.10;;
80637;SDS011;69991;51.760;19.528;2023-07-20T14:53:49;2.70;;;1.00;;
80637;SDS011;69991;51.760;19.528;2023-07-20T14:56:18;3.30;;;1.10;;
80637;SDS011;69991;51.760;19.528;2023-07-20T14:58:47;3.40;;;1.30;;
80637;SDS011;69991;51.760;19.528;2023-07-20T15:01:16;2.40;;;1.00;;
80637;SDS011;69991;51.760;19.528;2023-07-20T15:03:45;2.70;;;1.00;;
80637;SDS011;69991;51.760;19.528;2023-07-20T15:06:14;2.30;;;0.90;;
80637;SDS011;69991;51.760;19.528;2023-07-20T15:08:43;2.40;;;1.00;;
80637;SDS011;69991;51.760;19.528;2023-07-20T15:11:12;2.70;;;0.90;;
80637;SDS011;69991;51.760;19.528;2023-07-20T15:13:41;3.50;;;0.90;;